sensor_id;sensor_type;location;lat;lon;timestamp;pressure;altitude;pressure_sealevel;temperature;humidity
19736;BME280;32064;49.310;8.646;2023-02-28T00:01:19;101456.56;;;4.10;46.67
19736;BME280;32064;49.310;8.646;2023-02-28T00:03:45;101452.25;;;4.09;47.73
19736;BME280;32064;49.310;8.646;2023-02-28T00:06:10;101455.75;;;4.08;47.34
19736;BME280;32064;49.310;8.646;2023-02-28T00:08:37;101464.44;;;4.07;46.78
19736;BME280;32064;49.310;8.646;2023-02-28T00:11:05;101459.31;;;4.04;47.40
19736;BME280;32064;49.310;8.646;2023-02-28T00:13:33;101453.31;;;4.02;48.16
19736;BME280;32064;49.310;8.646;2023-02-28T00:16:05;101457.66;;;4.01;46.98
19736;BME280;32064;49.310;8.646;2023-02-28T00:18:31;101451.59;;;4.01;47.63
19736;BME280;32064;49.310;8.646;2023-02-28T00:20:57;101455.09;;;4.00;48.23
19736;BME280;32064;49.310;8.646;2023-02-28T00:23:22;101446.44;;;3.99;47.54
19736;BME280;32064;49.310;8.646;2023-02-28T00:25:48;101452.50;;;4.00;47.01
19736;BME280;32064;49.310;8.646;2023-02-28T00:28:14;101453.38;;;3.99;48.64
19736;BME280;32064;49.310;8.646;2023-02-28T00:30:39;101445.63;;;3.97;47.22
19736;BME280;32064;49.310;8.646;2023-02-28T00:33:04;101461.25;;;3.96;48.52
19736;BME280;32064;49.310;8.646;2023-02-28T00:35:30;101446.56;;;3.93;47.53
19736;BME280;32064;49.310;8.646;2023-02-28T00:37:55;101453.53;;;3.93;48.62
19736;BME280;32064;49.310;8.646;2023-02-28T00:40:21;101451.00;;;3.91;47.70
19736;BME280;32064;49.310;8.646;2023-02-28T00:42:46;101446.72;;;3.87;47.95
19736;BME280;32064;49.310;8.646;2023-02-28T00:45:11;101458.06;;;3.85;48.42
19736;BME280;32064;49.310;8.646;2023-02-28T00:47:37;101451.16;;;3.85;47.76
19736;BME280;32064;49.310;8.646;2023-02-28T00:50:03;101454.63;;;3.84;49.02
19736;BME280;32064;49.310;8.646;2023-02-28T00:52:29;101459.81;;;3.86;48.07
19736;BME280;32064;49.310;8.646;2023-02-28T00:54:55;101452.06;;;3.82;48.37
19736;BME280;32064;49.310;8.646;2023-02-28T00:57:20;101461.66;;;3.80;48.34
19736;BME280;32064;49.310;8.646;2023-02-28T00:59:45;101452.09;;;3.81;49.38
19736;BME280;32064;49.310;8.646;2023-02-28T01:02:12;101456.47;;;3.80;48.06
19736;BME280;32064;49.310;8.646;2023-02-28T01:04:37;101454.78;;;3.78;49.83
19736;BME280;32064;49.310;8.646;2023-02-28T01:07:03;101455.63;;;3.78;49.80
19736;BME280;32064;49.310;8.646;2023-02-28T01:09:28;101456.53;;;3.77;49.49
19736;BME280;32064;49.310;8.646;2023-02-28T01:11:54;101448.75;;;3.76;49.88
19736;BME280;32064;49.310;8.646;2023-02-28T01:14:19;101444.44;;;3.75;49.35
19736;BME280;32064;49.310;8.646;2023-02-28T01:16:45;101445.34;;;3.74;49.13
19736;BME280;32064;49.310;8.646;2023-02-28T01:19:10;101446.22;;;3.73;50.01
19736;BME280;32064;49.310;8.646;2023-02-28T01:21:36;101445.41;;;3.71;49.37
19736;BME280;32064;49.310;8.646;2023-02-28T01:24:03;101452.41;;;3.69;50.09
19736;BME280;32064;49.310;8.646;2023-02-28T01:26:29;101454.16;;;3.68;50.32
19736;BME280;32064;49.310;8.646;2023-02-28T01:28:54;101447.22;;;3.67;50.58
19736;BME280;32064;49.310;8.646;2023-02-28T01:31:20;101452.50;;;3.66;49.71
19736;BME280;32064;49.310;8.646;2023-02-28T01:33:47;101448.13;;;3.66;49.82
19736;BME280;32064;49.310;8.646;2023-02-28T01:36:18;101453.44;;;3.62;51.08
19736;BME280;32064;49.310;8.646;2023-02-28T01:38:44;101458.56;;;3.65;50.80
19736;BME280;32064;49.310;8.646;2023-02-28T01:41:19;101449.13;;;3.60;50.08
19736;BME280;32064;49.310;8.646;2023-02-28T01:46:10;101447.47;;;3.58;49.99
19736;BME280;32064;49.310;8.646;2023-02-28T01:48:48;101445.00;;;3.52;51.61
19736;BME280;32064;49.310;8.646;2023-02-28T01:51:20;101443.19;;;3.55;51.64
19736;BME280;32064;49.310;8.646;2023-02-28T01:54:01;101444.16;;;3.51;51.54
19736;BME280;32064;49.310;8.646;2023-02-28T01:56:30;101439.84;;;3.50;51.60
19736;BME280;32064;49.310;8.646;2023-02-28T01:58:57;101442.34;;;3.53;51.33
19736;BME280;32064;49.310;8.646;2023-02-28T02:01:23;101442.41;;;3.52;51.00
19736;BME280;32064;49.310;8.646;2023-02-28T02:03:53;101443.25;;;3.52;51.01
19736;BME280;32064;49.310;8.646;2023-02-28T02:06:25;101441.56;;;3.51;51.63
19736;BME280;32064;49.310;8.646;2023-02-28T02:08:50;101432.94;;;3.49;50.97
19736;BME280;32064;49.310;8.646;2023-02-28T02:11:19;101432.09;;;3.47;51.52
19736;BME280;32064;49.310;8.646;2023-02-28T02:27:55;101432.56;;;3.29;52.52
19736;BME280;32064;49.310;8.646;2023-02-28T02:31:10;101427.44;;;3.24;52.26
19736;BME280;32064;49.310;8.646;2023-02-28T02:36:32;101424.03;;;3.22;52.15
19736;BME280;32064;49.310;8.646;2023-02-28T02:39:19;101417.28;;;3.15;53.34
19736;BME280;32064;49.310;8.646;2023-02-28T02:41:53;101424.03;;;3.22;52.86
19736;BME280;32064;49.310;8.646;2023-02-28T02:44:34;101418.09;;;3.17;52.48
19736;BME280;32064;49.310;8.646;2023-02-28T02:47:10;101415.44;;;3.20;52.74
19736;BME280;32064;49.310;8.646;2023-02-28T02:49:39;101416.28;;;3.21;52.99
19736;BME280;32064;49.310;8.646;2023-02-28T02:52:09;101419.81;;;3.18;52.88
19736;BME280;32064;49.310;8.646;2023-02-28T02:54:40;101417.16;;;3.20;52.04
19736;BME280;32064;49.310;8.646;2023-02-28T02:57:17;101425.00;;;3.17;53.15
19736;BME280;32064;49.310;8.646;2023-02-28T02:59:45;101422.41;;;3.17;52.48
19736;BME280;32064;49.310;8.646;2023-02-28T03:02:12;101417.28;;;3.15;52.49
19736;BME280;32064;49.310;8.646;2023-02-28T03:04:46;101420.72;;;3.15;53.33
19736;BME280;32064;49.310;8.646;2023-02-28T03:07:14;101416.41;;;3.14;52.50
19736;BME280;32064;49.310;8.646;2023-02-28T03:09:39;101418.13;;;3.14;52.74
19736;BME280;32064;49.310;8.646;2023-02-28T03:12:09;101418.19;;;3.12;53.51
19736;BME280;32064;49.310;8.646;2023-02-28T03:14:56;101414.06;;;3.02;53.99
19736;BME280;32064;49.310;8.646;2023-02-28T03:17:49;101414.00;;;3.05;53.44
19736;BME280;32064;49.310;8.646;2023-02-28T03:26:18;101415.91;;;2.97;53.36
19736;BME280;32064;49.310;8.646;2023-02-28T03:31:56;101418.50;;;2.99;53.23
19736;BME280;32064;49.310;8.646;2023-02-28T03:34:29;101416.81;;;2.98;53.37
19736;BME280;32064;49.310;8.646;2023-02-28T03:37:05;101420.38;;;2.92;53.45
19736;BME280;32064;49.310;8.646;2023-02-28T03:39:37;101417.75;;;2.93;53.33
19736;BME280;32064;49.310;8.646;2023-02-28T03:42:18;101416.88;;;2.93;54.13
19736;BME280;32064;49.310;8.646;2023-02-28T03:44:49;101416.97;;;2.90;53.33
19736;BME280;32064;49.310;8.646;2023-02-28T03:47:19;101415.22;;;2.90;54.14
19736;BME280;32064;49.310;8.646;2023-02-28T03:49:53;101425.59;;;2.90;53.99
19736;BME280;32064;49.310;8.646;2023-02-28T03:52:23;101419.50;;;2.93;53.92
19736;BME280;32064;49.310;8.646;2023-02-28T03:54:54;101424.75;;;2.90;53.84
19736;BME280;32064;49.310;8.646;2023-02-28T03:57:34;101422.22;;;2.87;54.15
19736;BME280;32064;49.310;8.646;2023-02-28T04:00:15;101422.22;;;2.87;54.21
19736;BME280;32064;49.310;8.646;2023-02-28T04:02:42;101423.84;;;2.91;53.95
19736;BME280;32064;49.310;8.646;2023-02-28T04:05:07;101420.41;;;2.90;54.58
19736;BME280;32064;49.310;8.646;2023-02-28T04:07:33;101423.91;;;2.89;54.27
19736;BME280;32064;49.310;8.646;2023-02-28T04:09:58;101415.22;;;2.90;54.32
19736;BME280;32064;49.310;8.646;2023-02-28T04:12:24;101415.19;;;2.92;53.96
19736;BME280;32064;49.310;8.646;2023-02-28T04:14:50;101420.34;;;2.93;53.94
19736;BME280;32064;49.310;8.646;2023-02-28T04:17:16;101425.47;;;2.97;54.27
19736;BME280;32064;49.310;8.646;2023-02-28T04:19:42;101416.81;;;2.98;53.74
19736;BME280;32064;49.310;8.646;2023-02-28T04:22:09;101415.91;;;2.97;54.03
19736;BME280;32064;49.310;8.646;2023-02-28T04:24:35;101421.16;;;2.96;54.17
19736;BME280;32064;49.310;8.646;2023-02-28T04:27:00;101422.00;;;2.98;53.85
19736;BME280;32064;49.310;8.646;2023-02-28T04:29:28;101426.38;;;2.96;54.20
19736;BME280;32064;49.310;8.646;2023-02-28T04:31:55;101420.19;;;3.00;54.23
19736;BME280;32064;49.310;8.646;2023-02-28T04:34:23;101419.28;;;3.02;54.61
19736;BME280;32064;49.310;8.646;2023-02-28T04:36:49;101413.22;;;3.02;54.04
19736;BME280;32064;49.310;8.646;2023-02-28T04:39:16;101413.16;;;3.05;53.95
19736;BME280;32064;49.310;8.646;2023-02-28T04:41:44;101425.31;;;3.04;54.35
19736;BME280;32064;49.310;8.646;2023-02-28T04:44:09;101418.28;;;3.08;54.10
19736;BME280;32064;49.310;8.646;2023-02-28T04:46:35;101415.59;;;3.12;53.70
19736;BME280;32064;49.310;8.646;2023-02-28T04:49:00;101418.22;;;3.11;54.36
19736;BME280;32064;49.310;8.646;2023-02-28T04:51:25;101418.13;;;3.14;53.66
19736;BME280;32064;49.310;8.646;2023-02-28T04:53:51;101419.88;;;3.15;53.77
19736;BME280;32064;49.310;8.646;2023-02-28T04:56:17;101422.41;;;3.18;53.78
19736;BME280;32064;49.310;8.646;2023-02-28T04:58:43;101417.97;;;3.22;53.74
19736;BME280;32064;49.310;8.646;2023-02-28T05:01:27;101419.81;;;3.18;54.13
19736;BME280;32064;49.310;8.646;2023-02-28T05:03:54;101425.75;;;3.23;54.46
19736;BME280;32064;49.310;8.646;2023-02-28T05:06:21;101424.84;;;3.24;53.70
19736;BME280;32064;49.310;8.646;2023-02-28T05:08:49;101425.69;;;3.26;54.41
19736;BME280;32064;49.310;8.646;2023-02-28T05:11:24;101424.84;;;3.26;53.43
19736;BME280;32064;49.310;8.646;2023-02-28T05:13:51;101420.34;;;3.31;54.48
19736;BME280;32064;49.310;8.646;2023-02-28T05:16:18;101423.78;;;3.33;53.77
19736;BME280;32064;49.310;8.646;2023-02-28T05:18:44;101428.06;;;3.35;53.63
19736;BME280;32064;49.310;8.646;2023-02-28T05:23:49;101427.16;;;3.36;53.96
19736;BME280;32064;49.310;8.646;2023-02-28T05:26:14;101427.13;;;3.38;54.21
19736;BME280;32064;49.310;8.646;2023-02-28T05:28:39;101434.03;;;3.39;53.38
19736;BME280;32064;49.310;8.646;2023-02-28T05:31:05;101440.03;;;3.43;53.95
19736;BME280;32064;49.310;8.646;2023-02-28T05:33:30;101441.75;;;3.44;54.12
19736;BME280;32064;49.310;8.646;2023-02-28T05:35:55;101444.34;;;3.42;53.54
19736;BME280;32064;49.310;8.646;2023-02-28T05:38:21;101442.59;;;3.44;54.46
19736;BME280;32064;49.310;8.646;2023-02-28T05:40:46;101445.16;;;3.46;53.43
19736;BME280;32064;49.310;8.646;2023-02-28T05:43:12;101441.66;;;3.47;53.05
19736;BME280;32064;49.310;8.646;2023-02-28T05:45:37;101442.50;;;3.49;53.17
19736;BME280;32064;49.310;8.646;2023-02-28T05:48:02;101448.53;;;3.49;54.21
19736;BME280;32064;49.310;8.646;2023-02-28T05:50:28;101450.28;;;3.49;54.03
19736;BME280;32064;49.310;8.646;2023-02-28T05:52:53;101447.63;;;3.50;54.17
19736;BME280;32064;49.310;8.646;2023-02-28T05:55:19;101451.97;;;3.51;53.60
19736;BME280;32064;49.310;8.646;2023-02-28T05:57:44;101448.53;;;3.49;53.13
19736;BME280;32064;49.310;8.646;2023-02-28T06:00:11;101448.53;;;3.49;54.06
19736;BME280;32064;49.310;8.646;2023-02-28T06:02:38;101456.28;;;3.51;53.78
19736;BME280;32064;49.310;8.646;2023-02-28T06:05:05;101455.38;;;3.53;53.20
19736;BME280;32064;49.310;8.646;2023-02-28T06:07:30;101454.56;;;3.51;53.96
19736;BME280;32064;49.310;8.646;2023-02-28T06:09:56;101451.16;;;3.48;53.09
19736;BME280;32064;49.310;8.646;2023-02-28T06:12:21;101462.47;;;3.47;53.34
19736;BME280;32064;49.310;8.646;2023-02-28T06:14:46;101458.97;;;3.48;53.97
19736;BME280;32064;49.310;8.646;2023-02-28T06:17:12;101468.53;;;3.47;53.51
19736;BME280;32064;49.310;8.646;2023-02-28T06:19:38;101470.19;;;3.51;53.45
19736;BME280;32064;49.310;8.646;2023-02-28T06:22:06;101468.44;;;3.50;53.46
19736;BME280;32064;49.310;8.646;2023-02-28T06:24:32;101468.44;;;3.50;53.20
19736;BME280;32064;49.310;8.646;2023-02-28T06:26:57;101464.91;;;3.53;53.48
19736;BME280;32064;49.310;8.646;2023-02-28T06:29:31;101459.72;;;3.53;54.09
19736;BME280;32064;49.310;8.646;2023-02-28T06:31:56;101464.91;;;3.54;54.20
19736;BME280;32064;49.310;8.646;2023-02-28T06:34:21;101470.94;;;3.55;52.81
19736;BME280;32064;49.310;8.646;2023-02-28T06:36:50;101470.03;;;3.57;53.14
19736;BME280;32064;49.310;8.646;2023-02-28T06:39:16;101474.22;;;3.63;53.82
19736;BME280;32064;49.310;8.646;2023-02-28T06:41:42;101478.44;;;3.69;53.89
19736;BME280;32064;49.310;8.646;2023-02-28T06:44:15;101471.31;;;3.75;53.05
19736;BME280;32064;49.310;8.646;2023-02-28T06:46:42;101478.81;;;3.88;52.76
19736;BME280;32064;49.310;8.646;2023-02-28T06:49:08;101474.41;;;3.91;52.55
19736;BME280;32064;49.310;8.646;2023-02-28T06:51:35;101476.88;;;3.96;53.46
19736;BME280;32064;49.310;8.646;2023-02-28T06:54:01;101475.78;;;4.04;53.05
19736;BME280;32064;49.310;8.646;2023-02-28T06:56:26;101483.56;;;4.06;52.36
19736;BME280;32064;49.310;8.646;2023-02-28T06:58:51;101484.31;;;4.11;52.55
19736;BME280;32064;49.310;8.646;2023-02-28T07:01:18;101478.53;;;4.33;51.64
19736;BME280;32064;49.310;8.646;2023-02-28T07:03:44;101490.13;;;4.85;51.96
19736;BME280;32064;49.310;8.646;2023-02-28T07:06:10;101491.09;;;6.21;47.40
19736;BME280;32064;49.310;8.646;2023-02-28T07:08:36;101496.06;;;8.11;45.10
19736;BME280;32064;49.310;8.646;2023-02-28T07:11:01;101497.06;;;8.89;43.96
19736;BME280;32064;49.310;8.646;2023-02-28T07:13:27;101500.41;;;9.49;43.11
19736;BME280;32064;49.310;8.646;2023-02-28T07:16:03;101503.38;;;10.49;40.84
19736;BME280;32064;49.310;8.646;2023-02-28T07:18:30;101510.59;;;11.28;40.94
19736;BME280;32064;49.310;8.646;2023-02-28T07:20:55;101508.31;;;11.99;39.96
19736;BME280;32064;49.310;8.646;2023-02-28T07:23:21;101506.09;;;12.07;37.94
19736;BME280;32064;49.310;8.646;2023-02-28T07:25:48;101500.56;;;11.18;39.37
19736;BME280;32064;49.310;8.646;2023-02-28T07:28:14;101503.28;;;9.62;41.71
19736;BME280;32064;49.310;8.646;2023-02-28T07:30:40;101512.75;;;8.30;44.01
19736;BME280;32064;49.310;8.646;2023-02-28T07:33:06;101509.00;;;7.51;45.34
19736;BME280;32064;49.310;8.646;2023-02-28T07:35:31;101509.84;;;7.06;45.69
19736;BME280;32064;49.310;8.646;2023-02-28T07:37:58;101512.59;;;6.80;47.29
19736;BME280;32064;49.310;8.646;2023-02-28T07:40:23;101503.97;;;6.76;47.16
19736;BME280;32064;49.310;8.646;2023-02-28T07:42:49;101506.69;;;6.73;46.89
19736;BME280;32064;49.310;8.646;2023-02-28T07:45:14;101514.66;;;6.70;47.28
19736;BME280;32064;49.310;8.646;2023-02-28T07:47:41;101507.66;;;6.70;46.32
19736;BME280;32064;49.310;8.646;2023-02-28T07:50:09;101510.94;;;6.52;46.47
19736;BME280;32064;49.310;8.646;2023-02-28T07:52:36;101507.16;;;6.36;48.07
19736;BME280;32064;49.310;8.646;2023-02-28T07:55:02;101518.66;;;6.30;47.71
19736;BME280;32064;49.310;8.646;2023-02-28T07:57:28;101522.19;;;6.29;46.64
19736;BME280;32064;49.310;8.646;2023-02-28T07:59:53;101514.84;;;6.14;47.68
19736;BME280;32064;49.310;8.646;2023-02-28T08:02:19;101517.25;;;6.20;48.48
19736;BME280;32064;49.310;8.646;2023-02-28T08:04:45;101515.06;;;6.34;47.67
19736;BME280;32064;49.310;8.646;2023-02-28T08:07:12;101512.00;;;6.46;47.87
19736;BME280;32064;49.310;8.646;2023-02-28T08:09:41;101512.00;;;7.18;46.43
19736;BME280;32064;49.310;8.646;2023-02-28T08:12:08;101512.22;;;7.58;46.23
19736;BME280;32064;49.310;8.646;2023-02-28T08:14:34;101505.41;;;8.98;43.10
19736;BME280;32064;49.310;8.646;2023-02-28T08:16:59;101512.59;;;10.40;40.44
19736;BME280;32064;49.310;8.646;2023-02-28T08:19:25;101514.16;;;12.34;38.42
19736;BME280;32064;49.310;8.646;2023-02-28T08:21:50;101508.25;;;13.31;37.62
19736;BME280;32064;49.310;8.646;2023-02-28T08:24:16;101503.13;;;13.69;36.18
19736;BME280;32064;49.310;8.646;2023-02-28T08:26:41;101511.69;;;14.53;35.21
19736;BME280;32064;49.310;8.646;2023-02-28T08:29:07;101507.19;;;14.92;34.84
19736;BME280;32064;49.310;8.646;2023-02-28T08:31:32;101500.38;;;15.50;35.16
19736;BME280;32064;49.310;8.646;2023-02-28T08:33:58;101499.63;;;16.20;34.25
19736;BME280;32064;49.310;8.646;2023-02-28T08:36:25;101503.38;;;16.29;33.31
19736;BME280;32064;49.310;8.646;2023-02-28T08:38:51;101506.84;;;16.18;32.43
19736;BME280;32064;49.310;8.646;2023-02-28T08:41:16;101508.06;;;16.14;33.31
19736;BME280;32064;49.310;8.646;2023-02-28T08:43:42;101501.25;;;16.56;31.55
19736;BME280;32064;49.310;8.646;2023-02-28T08:46:08;101504.41;;;17.06;32.04
19736;BME280;32064;49.310;8.646;2023-02-28T08:48:36;101501.34;;;17.45;30.45
19736;BME280;32064;49.310;8.646;2023-02-28T08:51:07;101504.78;;;17.68;30.01
19736;BME280;32064;49.310;8.646;2023-02-28T08:53:38;101498.63;;;17.13;31.13
19736;BME280;32064;49.310;8.646;2023-02-28T08:56:07;101511.41;;;17.30;31.49
19736;BME280;32064;49.310;8.646;2023-02-28T08:58:33;101512.44;;;14.80;32.70
19736;BME280;32064;49.310;8.646;2023-02-28T09:01:00;101500.41;;;13.01;35.32
19736;BME280;32064;49.310;8.646;2023-02-28T09:03:26;101507.84;;;11.93;36.30
19736;BME280;32064;49.310;8.646;2023-02-28T09:05:59;101516.41;;;11.01;38.47
19736;BME280;32064;49.310;8.646;2023-02-28T09:08:26;101520.41;;;10.42;38.16
19736;BME280;32064;49.310;8.646;2023-02-28T09:10:52;101523.59;;;10.31;38.29
19736;BME280;32064;49.310;8.646;2023-02-28T09:13:18;101513.94;;;9.95;39.82
19736;BME280;32064;49.310;8.646;2023-02-28T09:15:44;101517.31;;;9.62;39.49
19736;BME280;32064;49.310;8.646;2023-02-28T09:18:10;101505.47;;;9.35;40.50
19736;BME280;32064;49.310;8.646;2023-02-28T09:20:40;101514.63;;;9.26;40.58
19736;BME280;32064;49.310;8.646;2023-02-28T09:23:09;101508.03;;;9.17;40.89
19736;BME280;32064;49.310;8.646;2023-02-28T09:25:35;101508.94;;;9.16;41.15
19736;BME280;32064;49.310;8.646;2023-02-28T09:28:01;101505.81;;;9.46;40.40
19736;BME280;32064;49.310;8.646;2023-02-28T09:30:27;101497.31;;;9.77;41.52
19736;BME280;32064;49.310;8.646;2023-02-28T09:32:52;101496.88;;;11.05;40.05
19736;BME280;32064;49.310;8.646;2023-02-28T09:35:20;101502.50;;;12.96;36.77
19736;BME280;32064;49.310;8.646;2023-02-28T09:37:49;101502.53;;;14.19;34.80
19736;BME280;32064;49.310;8.646;2023-02-28T09:40:17;101496.28;;;15.46;34.27
19736;BME280;32064;49.310;8.646;2023-02-28T09:42:45;101505.59;;;15.52;33.14
19736;BME280;32064;49.310;8.646;2023-02-28T09:45:28;101503.22;;;15.84;31.71
19736;BME280;32064;49.310;8.646;2023-02-28T09:47:59;101502.38;;;15.83;31.76
19736;BME280;32064;49.310;8.646;2023-02-28T09:52:55;101500.31;;;14.51;32.63
19736;BME280;32064;49.310;8.646;2023-02-28T09:55:39;101496.31;;;14.84;32.51
19736;BME280;32064;49.310;8.646;2023-02-28T09:58:18;101506.31;;;16.02;31.43
19736;BME280;32064;49.310;8.646;2023-02-28T10:00:54;101504.41;;;16.50;31.57
19736;BME280;32064;49.310;8.646;2023-02-28T10:03:36;101499.06;;;17.29;29.98
19736;BME280;32064;49.310;8.646;2023-02-28T10:06:33;101502.19;;;17.45;29.16
19736;BME280;32064;49.310;8.646;2023-02-28T10:09:09;101498.25;;;15.55;31.80
19736;BME280;32064;49.310;8.646;2023-02-28T10:11:39;101503.97;;;17.56;30.30
19736;BME280;32064;49.310;8.646;2023-02-28T10:14:18;101500.78;;;17.73;28.52
19736;BME280;32064;49.310;8.646;2023-02-28T10:16:58;101509.56;;;18.38;29.01
19736;BME280;32064;49.310;8.646;2023-02-28T10:22:19;101508.75;;;18.99;27.26
19736;BME280;32064;49.310;8.646;2023-02-28T10:24:54;101501.19;;;19.04;27.43
19736;BME280;32064;49.310;8.646;2023-02-28T10:27:29;101500.88;;;18.67;27.03
19736;BME280;32064;49.310;8.646;2023-02-28T10:29:57;101516.00;;;18.36;28.45
19736;BME280;32064;49.310;8.646;2023-02-28T10:32:29;101522.09;;;18.48;27.81
19736;BME280;32064;49.310;8.646;2023-02-28T10:35:06;101507.03;;;19.29;27.61
19736;BME280;32064;49.310;8.646;2023-02-28T10:37:32;101497.94;;;18.91;28.04
19736;BME280;32064;49.310;8.646;2023-02-28T10:40:03;101498.78;;;19.01;27.20
19736;BME280;32064;49.310;8.646;2023-02-28T10:42:31;101508.03;;;19.38;27.93
19736;BME280;32064;49.310;8.646;2023-02-28T10:45:15;101504.06;;;18.61;26.62
19736;BME280;32064;49.310;8.646;2023-02-28T10:48:02;101500.44;;;18.83;27.80
19736;BME280;32064;49.310;8.646;2023-02-28T10:50:36;101510.03;;;19.05;27.23
19736;BME280;32064;49.310;8.646;2023-02-28T10:53:28;101504.47;;;19.18;27.07
19736;BME280;32064;49.310;8.646;2023-02-28T10:58:59;101508.81;;;19.09;25.36
19736;BME280;32064;49.310;8.646;2023-02-28T11:01:41;101504.94;;;18.20;26.97
19736;BME280;32064;49.310;8.646;2023-02-28T11:06:53;101494.75;;;18.46;27.59
19736;BME280;32064;49.310;8.646;2023-02-28T11:09:29;101488.19;;;18.80;27.27
19736;BME280;32064;49.310;8.646;2023-02-28T11:11:55;101489.44;;;19.17;27.65
19736;BME280;32064;49.310;8.646;2023-02-28T11:14:25;101490.06;;;19.49;27.74
19736;BME280;32064;49.310;8.646;2023-02-28T11:16:52;101492.59;;;19.51;26.62
19736;BME280;32064;49.310;8.646;2023-02-28T11:19:35;101484.34;;;20.03;26.33
19736;BME280;32064;49.310;8.646;2023-02-28T11:22:04;101488.00;;;18.72;27.65
19736;BME280;32064;49.310;8.646;2023-02-28T11:24:37;101480.34;;;17.31;28.18
19736;BME280;32064;49.310;8.646;2023-02-28T11:27:24;101482.50;;;17.80;27.95
19736;BME280;32064;49.310;8.646;2023-02-28T11:29:50;101469.00;;;17.17;28.12
19736;BME280;32064;49.310;8.646;2023-02-28T11:32:19;101473.56;;;16.25;28.76
19736;BME280;32064;49.310;8.646;2023-02-28T11:34:46;101476.13;;;16.49;29.65
19736;BME280;32064;49.310;8.646;2023-02-28T11:37:24;101481.16;;;15.22;29.95
19736;BME280;32064;49.310;8.646;2023-02-28T11:39:52;101477.66;;;14.98;30.33
19736;BME280;32064;49.310;8.646;2023-02-28T11:42:35;101480.69;;;14.92;30.31
19736;BME280;32064;49.310;8.646;2023-02-28T11:48:05;101475.50;;;14.26;31.69
19736;BME280;32064;49.310;8.646;2023-02-28T11:51:21;101475.75;;;13.83;31.98
19736;BME280;32064;49.310;8.646;2023-02-28T11:53:46;101476.81;;;13.27;32.48
19736;BME280;32064;49.310;8.646;2023-02-28T11:58:55;101472.13;;;13.44;32.25
19736;BME280;32064;49.310;8.646;2023-02-28T12:01:30;101472.59;;;14.69;31.06
19736;BME280;32064;49.310;8.646;2023-02-28T12:04:37;101462.44;;;15.85;30.00
19736;BME280;32064;49.310;8.646;2023-02-28T12:07:18;101462.50;;;17.10;28.19
19736;BME280;32064;49.310;8.646;2023-02-28T12:12:41;101466.00;;;18.28;27.41
19736;BME280;32064;49.310;8.646;2023-02-28T12:20:46;101458.34;;;18.96;27.20
19736;BME280;32064;49.310;8.646;2023-02-28T12:26:44;101460.50;;;19.02;26.16
19736;BME280;32064;49.310;8.646;2023-02-28T12:29:24;101451.69;;;19.41;26.21
19736;BME280;32064;49.310;8.646;2023-02-28T12:31:56;101467.47;;;19.54;26.69
19736;BME280;32064;49.310;8.646;2023-02-28T12:34:32;101449.91;;;19.80;25.77
19736;BME280;32064;49.310;8.646;2023-02-28T12:37:03;101446.09;;;20.02;26.38
19736;BME280;32064;49.310;8.646;2023-02-28T12:39:35;101453.38;;;19.32;25.70
19736;BME280;32064;49.310;8.646;2023-02-28T12:42:10;101458.94;;;19.10;26.44
19736;BME280;32064;49.310;8.646;2023-02-28T12:44:45;101449.06;;;18.91;26.86
19736;BME280;32064;49.310;8.646;2023-02-28T12:47:18;101440.22;;;18.80;25.57
19736;BME280;32064;49.310;8.646;2023-02-28T12:49:49;101442.69;;;19.32;26.26
19736;BME280;32064;49.310;8.646;2023-02-28T12:52:19;101444.22;;;19.15;26.42
19736;BME280;32064;49.310;8.646;2023-02-28T12:54:58;101448.84;;;19.03;27.04
19736;BME280;32064;49.310;8.646;2023-02-28T12:57:48;101446.72;;;19.07;27.00
19736;BME280;32064;49.310;8.646;2023-02-28T13:00:21;101445.44;;;18.92;26.44
19736;BME280;32064;49.310;8.646;2023-02-28T13:03:11;101441.38;;;18.67;26.79
19736;BME280;32064;49.310;8.646;2023-02-28T13:05:53;101435.84;;;18.28;26.48
19736;BME280;32064;49.310;8.646;2023-02-28T13:11:06;101430.38;;;18.81;26.44
19736;BME280;32064;49.310;8.646;2023-02-28T13:13:32;101435.78;;;18.39;27.69
19736;BME280;32064;49.310;8.646;2023-02-28T13:16:08;101440.38;;;17.53;28.33
19736;BME280;32064;49.310;8.646;2023-02-28T13:18:38;101438.56;;;17.74;27.81
19736;BME280;32064;49.310;8.646;2023-02-28T13:21:07;101443.25;;;17.61;27.33
19736;BME280;32064;49.310;8.646;2023-02-28T13:26:03;101434.19;;;17.09;28.63
19736;BME280;32064;49.310;8.646;2023-02-28T13:31:18;101432.81;;;17.26;28.41
19736;BME280;32064;49.310;8.646;2023-02-28T13:38:45;101431.22;;;16.80;29.34
19736;BME280;32064;49.310;8.646;2023-02-28T13:46:31;101430.38;;;15.88;28.55
19736;BME280;32064;49.310;8.646;2023-02-28T13:51:53;101441.47;;;14.97;29.94
19736;BME280;32064;49.310;8.646;2023-02-28T13:54:50;101439.31;;;14.27;31.67
19736;BME280;32064;49.310;8.646;2023-02-28T14:05:44;101435.53;;;12.97;32.65
19736;BME280;32064;49.310;8.646;2023-02-28T14:08:15;101434.03;;;12.78;32.82
19736;BME280;32064;49.310;8.646;2023-02-28T14:10:48;101434.44;;;12.72;31.90
19736;BME280;32064;49.310;8.646;2023-02-28T14:13:36;101427.81;;;12.94;33.21
19736;BME280;32064;49.310;8.646;2023-02-28T14:16:05;101431.22;;;13.23;32.44
19736;BME280;32064;49.310;8.646;2023-02-28T14:19:09;101439.53;;;13.17;32.24
19736;BME280;32064;49.310;8.646;2023-02-28T14:21:29;101441.94;;;13.61;32.60
19736;BME280;32064;49.310;8.646;2023-02-28T14:24:30;101431.22;;;13.50;32.37
19736;BME280;32064;49.310;8.646;2023-02-28T14:32:41;101434.81;;;12.66;33.89
19736;BME280;32064;49.310;8.646;2023-02-28T14:37:51;101436.75;;;12.20;34.43
19736;BME280;32064;49.310;8.646;2023-02-28T14:40:27;101434.56;;;11.98;33.53
19736;BME280;32064;49.310;8.646;2023-02-28T14:42:57;101428.47;;;11.81;34.06
19736;BME280;32064;49.310;8.646;2023-02-28T14:45:27;101431.25;;;11.64;34.77
19736;BME280;32064;49.310;8.646;2023-02-28T14:47:54;101436.88;;;11.58;34.26